Time;durP1;ratioP1;P1;durP2;ratioP2;P2;SDS_P1;SDS_P2;PMS_P1;PMS_P2;Temp;Humidity;BMP_temperature;BMP_pressure;BME280_temperature;BME280_humidity;BME280_pressure;Samples;Min_cycle;Max_cycle;Signal;HPM_P1;HPM_P2
2022/11/28 00:01:33;;;;;;;38.15;20.05;;;1.90;74.80;;;;;;5016137;28;20493;-17
2022/11/28 00:03:59;;;;;;;33.15;17.95;;;1.90;74.90;;;;;;5016290;28;20034;-17
2022/11/28 00:06:26;;;;;;;34.85;18.80;;;1.90;74.90;;;;;;5015942;28;20057;-16
2022/11/28 00:08:53;;;;;;;37.75;21.05;;;1.90;75.40;;;;;;5016073;28;20025;-16
2022/11/28 00:11:18;;;;;;;35.88;20.48;;;1.90;75.40;;;;;;5015863;28;20037;-16
2022/11/28 00:13:45;;;;;;;37.83;20.15;;;1.90;75.40;;;;;;5015842;28;20026;-16
2022/11/28 00:16:20;;;;;;;37.85;20.50;;;1.90;75.20;;;;;;5015112;28;20018;-18
2022/11/28 00:18:47;;;;;;;38.70;22.30;;;1.80;74.90;;;;;;5016079;28;20037;-16
2022/11/28 00:21:14;;;;;;;39.50;22.60;;;1.80;74.80;;;;;;5015694;28;20058;-16
2022/11/28 00:23:42;;;;;;;35.35;19.65;;;1.80;74.90;;;;;;5015912;28;20037;-17
2022/11/28 00:26:28;;;;;;;40.42;21.80;;;1.90;74.90;;;;;;5015901;28;20034;-17
2022/11/28 00:28:55;;;;;;;37.47;20.33;;;1.90;75.00;;;;;;5015071;28;20053;-17
2022/11/28 00:31:24;;;;;;;36.95;19.20;;;1.90;75.10;;;;;;5015620;28;20030;-16
2022/11/28 00:33:51;;;;;;;33.67;17.73;;;1.90;74.80;;;;;;5015720;28;20084;-18
2022/11/28 00:36:19;;;;;;;34.53;19.85;;;1.90;75.00;;;;;;5015804;28;20018;-17
2022/11/28 00:38:45;;;;;;;39.90;22.27;;;1.90;75.10;;;;;;5015431;28;20034;-18
2022/11/28 00:41:14;;;;;;;36.28;21.38;;;1.90;75.10;;;;;;5015094;28;20121;-18
2022/11/28 00:43:42;;;;;;;38.28;20.25;;;1.90;75.50;;;;;;5015620;28;20022;-18
2022/11/28 00:46:08;;;;;;;36.72;20.63;;;1.90;75.80;;;;;;5015514;28;20018;-17
2022/11/28 00:48:35;;;;;;;38.00;19.33;;;1.90;75.30;;;;;;5015207;28;20061;-18
2022/11/28 00:51:13;;;;;;;35.78;18.40;;;1.90;75.30;;;;;;5014955;28;20030;-18
2022/11/28 00:53:41;;;;;;;29.85;17.83;;;1.90;75.00;;;;;;5015389;28;20025;-17
2022/11/28 00:56:12;;;;;;;32.00;18.42;;;2.00;75.40;;;;;;5014938;28;20057;-18
2022/11/28 00:58:39;;;;;;;36.42;19.10;;;1.90;75.20;;;;;;5015406;28;20044;-19
2022/11/28 01:01:18;;;;;;;31.92;17.17;;;1.90;75.10;;;;;;5015098;28;20061;-18
2022/11/28 01:03:45;;;;;;;32.95;18.55;;;1.90;75.10;;;;;;5014742;28;20041;-15
2022/11/28 01:06:12;;;;;;;31.90;17.90;;;2.00;75.70;;;;;;5015359;28;20041;-17
2022/11/28 01:08:38;;;;;;;26.95;16.65;;;2.00;75.80;;;;;;5015024;28;20038;-17
2022/11/28 01:11:11;;;;;;;26.25;14.77;;;2.00;75.80;;;;;;5014766;28;20065;-17
2022/11/28 01:13:38;;;;;;;28.83;16.20;;;2.00;75.80;;;;;;5014850;28;20034;-14
2022/11/28 01:16:05;;;;;;;28.05;15.88;;;2.00;76.20;;;;;;5015031;28;20072;-17
2022/11/28 01:18:31;;;;;;;26.55;15.60;;;1.90;76.50;;;;;;5015075;28;20021;-15
2022/11/28 01:20:56;;;;;;;29.02;15.68;;;2.00;76.30;;;;;;5014546;28;20056;-18
2022/11/28 01:23:22;;;;;;;28.50;16.98;;;2.00;75.80;;;;;;5014553;28;20037;-16
2022/11/28 01:25:48;;;;;;;31.63;17.17;;;2.00;75.60;;;;;;5014853;28;20053;-19
2022/11/28 01:28:14;;;;;;;30.50;17.52;;;2.00;75.90;;;;;;5013253;28;20389;-16
2022/11/28 01:30:40;;;;;;;31.95;15.75;;;2.00;76.20;;;;;;5014964;28;20137;-16
2022/11/28 01:33:06;;;;;;;24.95;13.30;;;2.10;76.40;;;;;;5014278;28;20026;-17
2022/11/28 01:35:32;;;;;;;23.88;13.70;;;2.10;76.80;;;;;;5014729;28;20022;-17
2022/11/28 01:37:58;;;;;;;26.77;15.68;;;2.10;76.00;;;;;;5014631;28;20029;-16
2022/11/28 01:40:24;;;;;;;27.50;15.30;;;2.10;75.90;;;;;;5014317;28;20117;-16
2022/11/28 01:42:49;;;;;;;22.25;12.48;;;2.10;75.80;;;;;;5014401;28;20025;-18
2022/11/28 01:45:25;;;;;;;20.20;10.75;;;2.10;76.00;;;;;;5014586;28;20030;-16
2022/11/28 01:47:53;;;;;;;23.95;12.93;;;2.00;75.60;;;;;;5014194;28;20038;-17
2022/11/28 01:50:20;;;;;;;21.85;11.50;;;2.00;75.70;;;;;;5014465;28;20028;-17
2022/11/28 01:52:52;;;;;;;26.90;15.43;;;2.00;75.20;;;;;;5014895;28;20054;-17
2022/11/28 01:55:23;;;;;;;26.17;14.68;;;2.00;75.90;;;;;;5013822;28;20405;-16
2022/11/28 01:57:51;;;;;;;24.25;13.82;;;2.00;75.90;;;;;;5014008;28;20033;-16
2022/11/28 02:00:19;;;;;;;24.77;12.70;;;1.90;76.10;;;;;;5013905;28;20388;-16
2022/11/28 02:02:47;;;;;;;22.02;11.40;;;1.90;76.40;;;;;;5014254;28;20433;-18
2022/11/28 02:05:15;;;;;;;24.98;13.43;;;1.90;76.30;;;;;;5013236;28;20548;-18
2022/11/28 02:07:43;;;;;;;22.17;12.82;;;1.90;76.20;;;;;;5013816;28;20116;-18
2022/11/28 02:10:14;;;;;;;27.92;14.27;;;1.90;76.60;;;;;;5013684;28;20058;-18
2022/11/28 02:12:55;;;;;;;22.88;13.25;;;1.90;76.50;;;;;;5013954;28;20022;-18
2022/11/28 02:15:41;;;;;;;30.45;16.00;;;1.90;76.30;;;;;;5013894;28;20449;-17
2022/11/28 02:18:39;;;;;;;23.73;13.65;;;1.90;76.10;;;;;;5013543;28;20038;-19
2022/11/28 02:21:05;;;;;;;23.08;14.70;;;1.90;76.10;;;;;;5013366;28;20026;-18
2022/11/28 02:24:12;;;;;;;25.50;15.30;;;1.90;75.90;;;;;;5013512;28;20036;-17
2022/11/28 02:27:15;;;;;;;26.48;14.57;;;1.90;75.90;;;;;;5014256;28;20123;-18
2022/11/28 02:30:17;;;;;;;24.17;13.45;;;1.90;76.40;;;;;;5013410;28;20095;-17
2022/11/28 02:33:10;;;;;;;21.77;12.68;;;1.90;76.10;;;;;;5008154;28;20060;-16
2022/11/28 02:36:02;;;;;;;20.10;11.90;;;1.90;76.40;;;;;;5005546;28;20498;-18
2022/11/28 02:38:46;;;;;;;19.52;11.43;;;2.00;76.80;;;;;;4934288;29;20046;-16
2022/11/28 02:41:29;;;;;;;24.48;13.77;;;2.00;76.70;;;;;;4918245;29;20164;-16
2022/11/28 02:44:18;;;;;;;23.27;13.57;;;2.10;76.90;;;;;;4933784;29;20040;-18
2022/11/28 02:46:49;;;;;;;24.58;13.80;;;2.20;76.00;;;;;;4933768;29;20086;-16
2022/11/28 02:49:30;;;;;;;24.38;13.57;;;2.20;76.00;;;;;;4933737;29;20040;-15
2022/11/28 02:52:09;;;;;;;25.65;14.07;;;2.20;75.70;;;;;;4933640;29;20044;-16
2022/11/28 02:54:38;;;;;;;22.00;12.30;;;2.20;75.80;;;;;;4933553;29;23018;-18
2022/11/28 02:57:04;;;;;;;20.85;12.10;;;2.20;75.70;;;;;;4933645;29;20572;-17
2022/11/28 02:59:35;;;;;;;20.73;12.40;;;2.30;75.70;;;;;;4933707;29;20067;-16
2022/11/28 03:02:22;;;;;;;22.80;12.95;;;2.30;75.50;;;;;;4933564;29;20531;-16
2022/11/28 03:04:56;;;;;;;22.73;12.15;;;2.40;75.60;;;;;;4932783;29;20036;-18
2022/11/28 03:07:43;;;;;;;19.67;11.10;;;2.40;75.70;;;;;;4933815;29;20441;-16
2022/11/28 03:10:24;;;;;;;19.55;11.25;;;2.50;75.50;;;;;;4933659;29;20036;-18
2022/11/28 03:12:58;;;;;;;20.83;10.57;;;2.50;75.50;;;;;;4933163;29;20523;-17
2022/11/28 03:15:36;;;;;;;21.00;11.00;;;2.60;75.50;;;;;;4968047;28;20065;-18
2022/11/28 03:18:16;;;;;;;19.70;10.55;;;2.70;75.40;;;;;;5016103;28;20022;-19
2022/11/28 03:20:56;;;;;;;17.75;10.43;;;2.70;75.80;;;;;;5017595;28;20022;-18
2022/11/28 03:23:47;;;;;;;18.95;10.18;;;2.80;75.20;;;;;;5017869;28;20374;-18
2022/11/28 03:26:42;;;;;;;15.77;9.88;;;2.80;75.30;;;;;;5016793;28;20069;-19
2022/11/28 03:29:30;;;;;;;19.98;10.20;;;2.90;75.30;;;;;;5011416;28;20084;-16
2022/11/28 03:32:07;;;;;;;17.15;9.32;;;2.90;75.10;;;;;;5017596;28;20091;-18
2022/11/28 03:34:40;;;;;;;15.50;9.43;;;2.90;75.00;;;;;;5016784;28;20147;-17
2022/11/28 03:37:17;;;;;;;20.77;10.77;;;3.00;75.00;;;;;;5016562;28;20064;-18
2022/11/28 03:39:48;;;;;;;17.52;10.00;;;3.00;75.00;;;;;;5016677;28;20030;-15
2022/11/28 03:42:20;;;;;;;17.38;10.18;;;3.00;75.00;;;;;;5017248;28;20484;-18
2022/11/28 03:44:55;;;;;;;16.92;9.57;;;3.10;74.80;;;;;;5016810;28;20386;-19
2022/11/28 03:47:29;;;;;;;17.95;9.93;;;3.10;74.80;;;;;;5016508;28;20030;-18
2022/11/28 03:50:00;;;;;;;16.05;9.20;;;3.10;74.80;;;;;;5016334;28;20418;-18
2022/11/28 03:52:32;;;;;;;15.18;8.65;;;3.10;75.00;;;;;;5016371;28;20034;-18
2022/11/28 03:55:20;;;;;;;17.15;9.35;;;3.10;74.90;;;;;;5016079;28;20458;-18
2022/11/28 03:58:12;;;;;;;17.17;9.43;;;3.10;74.80;;;;;;5016700;28;20112;-18
2022/11/28 04:00:51;;;;;;;17.33;9.63;;;3.10;74.90;;;;;;5009586;28;20038;-19
2022/11/28 04:03:45;;;;;;;18.38;10.25;;;3.20;75.00;;;;;;5016454;28;20026;-18
2022/11/28 04:06:47;;;;;;;19.43;9.53;;;3.20;74.90;;;;;;5016189;28;20034;-18
2022/11/28 04:09:18;;;;;;;17.75;9.68;;;3.20;74.90;;;;;;5016681;28;20347;-19
2022/11/28 04:11:50;;;;;;;16.35;10.02;;;3.20;75.30;;;;;;5016154;28;20137;-18
2022/11/28 04:14:23;;;;;;;13.80;8.02;;;3.20;75.10;;;;;;5016288;28;20026;-19
2022/11/28 04:16:57;;;;;;;16.25;9.73;;;3.20;75.10;;;;;;5014518;28;20116;-19
2022/11/28 04:19:45;;;;;;;15.50;8.43;;;3.30;75.00;;;;;;5015957;28;20029;-17
2022/11/28 04:22:30;;;;;;;12.30;7.07;;;3.30;75.10;;;;;;5016118;28;20045;-19
2022/11/28 04:25:13;;;;;;;15.43;8.65;;;3.20;74.90;;;;;;5015648;28;20049;-17
2022/11/28 04:27:46;;;;;;;16.77;9.45;;;3.30;75.10;;;;;;5015341;28;20481;-18
2022/11/28 04:30:13;;;;;;;14.80;9.18;;;3.30;75.30;;;;;;5015882;28;20481;-19
2022/11/28 04:32:46;;;;;;;13.32;7.55;;;3.30;75.30;;;;;;5015803;28;20030;-18
2022/11/28 04:35:21;;;;;;;16.15;8.57;;;3.30;75.20;;;;;;5015884;28;20018;-18
2022/11/28 04:37:50;;;;;;;13.52;7.72;;;3.30;75.30;;;;;;5015938;28;20557;-18
2022/11/28 04:40:19;;;;;;;15.20;8.73;;;3.40;75.10;;;;;;5016380;28;20120;-18
2022/11/28 04:42:52;;;;;;;17.63;8.80;;;3.40;74.90;;;;;;5015883;28;20117;-18
2022/11/28 04:45:32;;;;;;;16.20;8.35;;;3.40;75.30;;;;;;5015967;28;20109;-19
2022/11/28 04:47:59;;;;;;;16.08;8.95;;;3.50;75.10;;;;;;5015542;28;20033;-18
2022/11/28 04:50:47;;;;;;;14.90;8.13;;;3.50;75.00;;;;;;5015397;28;20053;-19
2022/11/28 04:53:34;;;;;;;16.15;7.85;;;3.50;74.80;;;;;;5015515;28;20068;-18
2022/11/28 04:56:10;;;;;;;14.27;8.68;;;3.50;74.90;;;;;;5015009;28;20060;-18
2022/11/28 04:58:46;;;;;;;14.68;7.88;;;3.50;75.00;;;;;;5015201;28;20030;-17
2022/11/28 05:01:19;;;;;;;12.82;7.53;;;3.50;75.00;;;;;;5015464;28;20037;-16
2022/11/28 05:03:45;;;;;;;14.05;8.38;;;3.50;75.10;;;;;;5015188;28;20026;-16
2022/11/28 05:06:25;;;;;;;16.38;8.57;;;3.50;75.00;;;;;;5015155;28;20113;-17
2022/11/28 05:08:51;;;;;;;17.05;8.43;;;3.50;74.80;;;;;;5015120;28;20057;-18
2022/11/28 05:11:18;;;;;;;13.43;8.35;;;3.50;74.90;;;;;;5015379;28;20047;-18
2022/11/28 05:13:45;;;;;;;14.52;7.63;;;3.60;75.00;;;;;;5015109;28;20026;-19
2022/11/28 05:16:11;;;;;;;13.68;7.57;;;3.50;75.00;;;;;;5015071;28;20516;-18
2022/11/28 05:18:38;;;;;;;14.77;8.07;;;3.60;74.90;;;;;;5015150;28;20022;-18
2022/11/28 05:21:07;;;;;;;12.55;7.35;;;3.60;75.10;;;;;;5014854;28;20055;-18
2022/11/28 05:23:42;;;;;;;12.82;6.25;;;3.60;75.30;;;;;;5013461;28;20113;-18
2022/11/28 05:26:19;;;;;;;13.48;7.18;;;3.60;75.10;;;;;;5014868;28;20022;-17
2022/11/28 05:28:48;;;;;;;11.52;7.38;;;3.60;75.10;;;;;;5014875;28;20054;-17
2022/11/28 05:31:15;;;;;;;13.57;6.75;;;3.60;75.40;;;;;;5014901;28;20029;-16
2022/11/28 05:33:41;;;;;;;15.45;8.35;;;3.60;75.20;;;;;;5013158;28;20088;-18
2022/11/28 05:36:10;;;;;;;15.07;7.10;;;3.60;75.30;;;;;;5014756;28;20509;-15
2022/11/28 05:38:37;;;;;;;13.38;7.00;;;3.60;75.30;;;;;;5014640;28;20065;-17
2022/11/28 05:41:03;;;;;;;14.63;8.88;;;3.60;75.40;;;;;;5013348;28;20029;-17
2022/11/28 05:43:30;;;;;;;13.10;7.22;;;3.50;75.40;;;;;;5014436;28;20033;-17
2022/11/28 05:45:56;;;;;;;16.45;9.23;;;3.50;75.30;;;;;;5014153;28;20074;-16
2022/11/28 05:48:23;;;;;;;15.85;8.77;;;3.50;75.40;;;;;;5014384;28;20434;-17
2022/11/28 05:50:49;;;;;;;15.70;8.35;;;3.50;75.10;;;;;;5014077;28;20030;-15
2022/11/28 05:53:17;;;;;;;18.27;9.88;;;3.50;75.10;;;;;;5014094;28;20029;-19
2022/11/28 05:55:44;;;;;;;15.35;9.32;;;3.50;75.30;;;;;;5014165;28;20047;-16
2022/11/28 05:58:09;;;;;;;13.90;8.35;;;3.50;75.30;;;;;;5014310;28;20030;-14
2022/11/28 06:00:36;;;;;;;13.57;7.88;;;3.40;75.20;;;;;;5013995;28;20076;-17
2022/11/28 06:03:03;;;;;;;13.98;7.20;;;3.50;75.30;;;;;;5013831;28;20052;-17
2022/11/28 06:05:29;;;;;;;11.98;7.28;;;3.50;75.30;;;;;;5013903;28;20059;-17
2022/11/28 06:07:55;;;;;;;13.65;7.57;;;3.50;75.30;;;;;;5014025;28;20061;-16
2022/11/28 06:10:21;;;;;;;11.52;7.22;;;3.50;75.50;;;;;;5013753;28;20445;-18
2022/11/28 06:12:48;;;;;;;11.75;6.70;;;3.50;75.40;;;;;;5013785;28;20036;-19
2022/11/28 06:15:14;;;;;;;13.68;7.35;;;3.50;75.40;;;;;;5013825;28;20029;-18
2022/11/28 06:17:41;;;;;;;13.07;7.80;;;3.60;75.40;;;;;;5013897;28;20497;-18
2022/11/28 06:20:07;;;;;;;15.75;7.95;;;3.60;75.30;;;;;;5013660;28;20108;-18
2022/11/28 06:22:34;;;;;;;16.45;8.25;;;3.60;75.30;;;;;;5013897;28;20034;-18
2022/11/28 06:25:00;;;;;;;14.18;8.00;;;3.70;75.20;;;;;;5013531;28;20537;-16
2022/11/28 06:27:25;;;;;;;14.60;8.93;;;3.80;75.10;;;;;;5013910;28;20121;-19
2022/11/28 06:29:51;;;;;;;16.55;9.07;;;3.80;75.00;;;;;;5013762;28;20040;-16
2022/11/28 06:32:19;;;;;;;15.60;8.57;;;3.90;75.10;;;;;;5012310;28;20065;-18
2022/11/28 06:34:44;;;;;;;13.25;7.05;;;3.90;75.00;;;;;;5013744;28;20030;-18
2022/11/28 06:37:10;;;;;;;16.17;8.20;;;3.90;74.90;;;;;;5013419;28;20018;-17
2022/11/28 06:39:37;;;;;;;13.48;7.82;;;4.00;74.90;;;;;;5013414;28;20505;-15
2022/11/28 06:42:03;;;;;;;15.60;8.43;;;4.10;74.80;;;;;;5013314;28;20030;-18
2022/11/28 06:44:29;;;;;;;16.05;8.70;;;4.10;74.60;;;;;;5013188;28;20030;-14
2022/11/28 06:46:55;;;;;;;13.82;7.80;;;4.20;74.50;;;;;;5013345;28;20030;-15
2022/11/28 06:49:21;;;;;;;16.70;8.98;;;4.20;74.40;;;;;;5013510;28;20077;-14
2022/11/28 06:51:47;;;;;;;15.40;8.35;;;4.30;74.40;;;;;;5013158;28;20033;-17
2022/11/28 06:54:13;;;;;;;15.10;8.23;;;4.30;74.30;;;;;;5013121;28;20034;-15
2022/11/28 06:56:40;;;;;;;16.13;8.65;;;4.40;74.30;;;;;;5012879;28;20133;-16
2022/11/28 06:59:06;;;;;;;16.05;9.02;;;4.40;74.20;;;;;;5012963;28;20032;-18
2022/11/28 07:01:33;;;;;;;17.63;9.40;;;4.40;74.20;;;;;;5013332;28;20026;-15
2022/11/28 07:03:59;;;;;;;15.32;8.85;;;4.50;74.10;;;;;;5012871;28;20109;-16
2022/11/28 07:06:26;;;;;;;25.10;11.20;;;4.50;74.10;;;;;;5013191;28;20022;-17
2022/11/28 07:08:54;;;;;;;16.65;9.02;;;4.50;74.10;;;;;;5013004;28;20026;-18
2022/11/28 07:11:31;;;;;;;23.80;12.68;;;4.60;74.10;;;;;;5012968;28;20030;-19
2022/11/28 07:13:59;;;;;;;27.10;12.18;;;4.60;74.00;;;;;;5012958;28;20335;-17
2022/11/28 07:16:28;;;;;;;19.35;8.73;;;4.70;73.90;;;;;;5013094;28;20026;-16
2022/11/28 07:18:55;;;;;;;20.02;9.05;;;4.70;73.90;;;;;;5012617;28;20109;-17
2022/11/28 07:21:22;;;;;;;20.33;9.00;;;4.80;73.80;;;;;;5012759;28;20045;-18
2022/11/28 07:23:49;;;;;;;18.27;9.45;;;4.80;73.70;;;;;;5012637;28;20022;-18
2022/11/28 07:26:17;;;;;;;21.05;11.20;;;4.80;73.80;;;;;;5012747;28;20054;-18
2022/11/28 07:28:44;;;;;;;23.42;10.88;;;4.90;73.80;;;;;;5013019;28;20139;-17
2022/11/28 07:31:13;;;;;;;25.98;12.73;;;4.90;73.80;;;;;;5013092;28;20096;-17
2022/11/28 07:33:41;;;;;;;20.00;11.52;;;4.90;73.90;;;;;;5012659;28;20359;-18
2022/11/28 07:36:14;;;;;;;19.33;9.68;;;4.90;73.90;;;;;;5012974;28;20022;-18
2022/11/28 07:38:40;;;;;;;15.87;8.90;;;4.90;73.90;;;;;;5013296;28;20093;-18
2022/11/28 07:41:11;;;;;;;17.83;8.57;;;5.00;74.00;;;;;;5012424;28;20030;-19
2022/11/28 07:43:38;;;;;;;16.90;9.23;;;5.00;73.60;;;;;;5013220;28;20105;-18
2022/11/28 07:46:06;;;;;;;16.05;7.90;;;5.10;73.60;;;;;;5012555;28;20037;-17
2022/11/28 07:48:34;;;;;;;23.08;11.52;;;5.10;73.50;;;;;;5012702;28;20048;-15
2022/11/28 07:51:03;;;;;;;23.02;11.18;;;5.20;73.50;;;;;;5012526;28;20030;-18
2022/11/28 07:53:29;;;;;;;18.33;8.88;;;5.20;73.40;;;;;;5012500;28;20033;-15
2022/11/28 07:55:55;;;;;;;13.73;8.15;;;5.20;73.60;;;;;;5012357;28;20065;-16
2022/11/28 07:58:21;;;;;;;18.27;8.13;;;5.30;73.50;;;;;;5012064;28;20034;-17
2022/11/28 08:00:47;;;;;;;17.10;9.10;;;5.30;73.60;;;;;;5012567;28;20080;-16
2022/11/28 08:03:13;;;;;;;15.95;9.20;;;5.30;73.70;;;;;;5014314;28;20466;-18
2022/11/28 08:05:41;;;;;;;16.08;8.55;;;5.40;73.50;;;;;;5016364;28;20042;-18
2022/11/28 08:08:07;;;;;;;16.13;9.35;;;5.40;73.50;;;;;;5016123;28;20038;-17
2022/11/28 08:10:32;;;;;;;16.15;9.18;;;5.50;73.40;;;;;;5016123;28;20033;-16
2022/11/28 08:12:58;;;;;;;14.88;7.95;;;5.50;73.10;;;;;;5015832;28;20117;-18
2022/11/28 08:15:29;;;;;;;18.70;10.80;;;5.50;73.10;;;;;;5016823;28;20148;-18
2022/11/28 08:17:55;;;;;;;20.13;10.38;;;5.60;73.40;;;;;;5016048;28;20386;-17
2022/11/28 08:20:21;;;;;;;18.13;10.80;;;5.60;73.20;;;;;;5016315;28;20051;-16
2022/11/28 08:22:47;;;;;;;15.70;8.90;;;5.60;73.10;;;;;;5015593;28;20040;-18
2022/11/28 08:25:13;;;;;;;19.80;9.65;;;5.70;73.10;;;;;;5015366;28;20153;-16
2022/11/28 08:27:39;;;;;;;17.45;9.30;;;5.70;72.90;;;;;;5014493;28;20041;-17
2022/11/28 08:30:06;;;;;;;15.60;8.98;;;5.80;73.30;;;;;;5015736;28;20037;-16
2022/11/28 08:32:32;;;;;;;13.60;8.02;;;5.80;73.20;;;;;;5015620;28;20026;-17
2022/11/28 08:34:58;;;;;;;16.27;9.30;;;5.90;72.90;;;;;;5015354;28;20032;-16
2022/11/28 08:37:25;;;;;;;15.18;9.10;;;5.90;73.20;;;;;;5016263;28;20026;-16
2022/11/28 08:39:51;;;;;;;14.23;8.05;;;5.90;73.20;;;;;;5015568;28;20030;-18
2022/11/28 08:42:17;;;;;;;16.98;9.85;;;6.00;73.30;;;;;;5015693;28;20034;-19
2022/11/28 08:44:43;;;;;;;15.10;7.85;;;6.00;73.20;;;;;;5015526;28;20113;-17
2022/11/28 08:47:08;;;;;;;15.73;8.32;;;6.10;73.00;;;;;;5015064;28;20058;-17
2022/11/28 08:49:36;;;;;;;15.48;7.43;;;6.10;72.90;;;;;;5015459;28;20030;-16
2022/11/28 08:52:03;;;;;;;12.32;7.32;;;6.20;72.70;;;;;;5015340;28;20021;-17
2022/11/28 08:54:29;;;;;;;14.45;7.63;;;6.20;72.70;;;;;;5015261;28;20102;-16
2022/11/28 08:56:55;;;;;;;16.83;9.30;;;6.30;72.60;;;;;;5015203;28;20105;-17
2022/11/28 08:59:21;;;;;;;15.73;9.60;;;6.40;72.80;;;;;;5015183;28;20036;-18
2022/11/28 09:01:46;;;;;;;23.83;11.95;;;6.40;72.90;;;;;;5015208;28;20026;-19
2022/11/28 09:04:13;;;;;;;20.25;10.90;;;6.50;73.40;;;;;;5015253;28;20026;-18
2022/11/28 09:06:40;;;;;;;16.27;9.23;;;6.60;73.10;;;;;;5015267;28;20042;-17
2022/11/28 09:09:07;;;;;;;22.73;13.13;;;6.70;72.60;;;;;;5015335;28;20087;-16
2022/11/28 09:11:34;;;;;;;18.75;10.63;;;6.70;72.40;;;;;;5014846;28;20038;-18
2022/11/28 09:14:00;;;;;;;22.75;12.73;;;6.80;71.90;;;;;;5014144;28;20088;-18
2022/11/28 09:16:26;;;;;;;19.60;12.07;;;6.80;71.70;;;;;;5013215;28;20018;-17
2022/11/28 09:18:53;;;;;;;22.17;11.23;;;6.80;71.40;;;;;;5014585;28;20050;-18
2022/11/28 09:21:19;;;;;;;18.27;10.70;;;6.80;71.50;;;;;;5015037;28;20029;-17
2022/11/28 09:23:45;;;;;;;17.83;10.77;;;6.80;71.50;;;;;;5014911;28;20367;-16
2022/11/28 09:26:18;;;;;;;21.23;11.90;;;6.80;71.60;;;;;;5014881;28;20585;-15
2022/11/28 09:28:44;;;;;;;16.92;9.35;;;6.90;71.60;;;;;;5014723;28;20057;-18
2022/11/28 09:31:12;;;;;;;20.05;11.43;;;6.90;71.60;;;;;;5014635;28;20026;-18
2022/11/28 09:33:38;;;;;;;17.20;10.00;;;7.00;71.60;;;;;;5014515;28;20026;-18
2022/11/28 09:36:07;;;;;;;16.25;10.15;;;7.10;71.40;;;;;;5014438;28;20061;-17
2022/11/28 09:38:34;;;;;;;18.02;9.93;;;7.20;71.30;;;;;;5014644;28;20105;-18
2022/11/28 09:41:01;;;;;;;16.95;9.25;;;7.30;71.70;;;;;;5014198;28;20021;-18
2022/11/28 09:43:34;;;;;;;18.63;11.13;;;7.50;71.30;;;;;;5014558;28;20510;-18
2022/11/28 09:46:04;;;;;;;17.52;9.93;;;7.60;71.10;;;;;;5014065;28;20028;-18
2022/11/28 09:48:50;;;;;;;18.77;11.25;;;7.80;70.70;;;;;;5014480;28;20026;-17
2022/11/28 09:51:22;;;;;;;19.70;11.65;;;7.90;70.50;;;;;;5014440;28;20561;-16
2022/11/28 09:54:18;;;;;;;21.50;12.68;;;7.90;70.40;;;;;;5014135;28;20055;-18
2022/11/28 09:56:49;;;;;;;16.60;10.40;;;8.00;69.80;;;;;;5005910;28;20482;-17
2022/11/28 09:59:24;;;;;;;18.63;10.75;;;8.10;69.90;;;;;;5014020;28;20125;-17
2022/11/28 10:02:17;;;;;;;19.80;9.57;;;8.10;69.90;;;;;;5014058;28;20029;-19
2022/11/28 10:04:55;;;;;;;27.10;13.48;;;8.20;69.60;;;;;;5013902;28;20026;-18
2022/11/28 10:07:42;;;;;;;23.05;11.43;;;8.30;69.70;;;;;;5013771;28;20030;-18
2022/11/28 10:10:27;;;;;;;19.48;12.38;;;8.40;68.90;;;;;;5014436;28;20160;-17
2022/11/28 10:13:13;;;;;;;15.50;9.35;;;8.50;69.40;;;;;;5013955;28;20080;-16
2022/11/28 10:16:06;;;;;;;14.57;9.05;;;8.60;69.20;;;;;;5014360;28;20041;-16
2022/11/28 10:18:49;;;;;;;16.48;9.90;;;8.60;69.40;;;;;;5012338;28;20455;-16
2022/11/28 10:21:31;;;;;;;15.77;9.60;;;8.70;68.60;;;;;;5013693;28;20048;-18
2022/11/28 10:24:06;;;;;;;16.40;8.80;;;8.70;68.10;;;;;;5013673;28;20041;-16
2022/11/28 10:26:38;;;;;;;18.58;9.32;;;8.80;67.50;;;;;;5013218;28;20072;-18
2022/11/28 10:29:23;;;;;;;14.90;8.55;;;8.80;67.70;;;;;;5013985;28;20092;-17
2022/11/28 10:31:53;;;;;;;12.52;8.15;;;8.90;68.20;;;;;;5014008;28;20030;-18
2022/11/28 10:34:42;;;;;;;15.70;8.15;;;8.90;67.90;;;;;;5013384;28;20076;-16
2022/11/28 10:37:44;;;;;;;15.45;9.77;;;8.90;67.30;;;;;;5005502;28;20034;-16
2022/11/28 10:40:16;;;;;;;13.60;8.05;;;8.90;67.00;;;;;;4936982;29;20023;-18
2022/11/28 10:42:58;;;;;;;12.60;7.72;;;8.90;67.70;;;;;;4953127;29;20043;-17
2022/11/28 10:45:35;;;;;;;13.70;7.57;;;9.00;67.50;;;;;;4952889;29;20083;-18
2022/11/28 10:48:35;;;;;;;13.10;7.95;;;9.00;66.70;;;;;;4953537;29;20043;-16
2022/11/28 10:51:06;;;;;;;15.15;7.45;;;9.10;67.10;;;;;;4952595;29;20106;-17
2022/11/28 10:53:54;;;;;;;15.07;7.63;;;9.20;66.80;;;;;;4952822;29;20038;-17
2022/11/28 10:56:32;;;;;;;14.65;8.38;;;9.20;66.00;;;;;;4952546;29;20059;-16
2022/11/28 10:59:14;;;;;;;14.23;7.40;;;9.20;66.00;;;;;;4952621;29;20554;-18
2022/11/28 11:01:41;;;;;;;12.30;6.88;;;9.20;66.20;;;;;;4952744;28;20090;-17
2022/11/28 11:04:22;;;;;;;12.40;7.07;;;9.20;66.60;;;;;;4952538;29;20031;-18
2022/11/28 11:07:22;;;;;;;13.43;7.30;;;9.30;65.90;;;;;;4952898;29;20050;-17
2022/11/28 11:09:49;;;;;;;14.18;6.75;;;9.40;65.20;;;;;;4898629;29;20088;-17
2022/11/28 11:12:26;;;;;;;11.77;6.90;;;9.30;65.60;;;;;;4914398;29;20031;-19
2022/11/28 11:14:52;;;;;;;12.40;7.18;;;9.30;65.70;;;;;;4945060;29;20036;-19
2022/11/28 11:17:32;;;;;;;15.00;7.72;;;9.30;65.30;;;;;;4952491;29;20102;-18
2022/11/28 11:19:59;;;;;;;11.00;6.70;;;9.40;65.50;;;;;;4952522;28;20506;-18
2022/11/28 11:22:31;;;;;;;14.93;8.13;;;9.40;65.30;;;;;;4952401;28;20411;-19
2022/11/28 11:25:05;;;;;;;12.60;7.18;;;9.40;65.10;;;;;;4952333;28;20037;-18
2022/11/28 11:27:31;;;;;;;;;;;9.50;64.70;;;;;;4953135;29;20130;-16
2022/11/28 11:29:57;;;;;;;15.20;7.18;;;9.50;61.90;;;;;;4952776;29;19914;-17
2022/11/28 11:32:29;;;;;;;17.10;8.57;;;9.50;64.50;;;;;;4952353;29;20108;-16
2022/11/28 11:34:58;;;;;;;13.02;6.75;;;9.60;63.80;;;;;;4952160;29;20534;-17
2022/11/28 11:37:37;;;;;;;16.33;9.20;;;9.70;64.30;;;;;;4952494;28;20066;-15
2022/11/28 11:40:20;;;;;;;11.93;6.75;;;9.70;63.20;;;;;;4956474;29;20035;-17
2022/11/28 11:43:00;;;;;;;14.63;7.57;;;9.80;63.90;;;;;;4956231;29;20038;-16
2022/11/28 11:45:34;;;;;;;15.80;8.15;;;9.90;64.30;;;;;;4961193;28;20027;-17
2022/11/28 11:48:02;;;;;;;12.48;7.15;;;9.90;63.70;;;;;;5016887;28;20049;-16
2022/11/28 11:50:30;;;;;;;12.70;6.78;;;9.90;63.60;;;;;;5015026;28;20394;-17
2022/11/28 11:53:13;;;;;;;12.75;7.35;;;9.90;62.90;;;;;;5016552;28;20018;-17
2022/11/28 11:55:51;;;;;;;13.50;7.20;;;9.90;62.20;;;;;;5016199;28;20077;-16
2022/11/28 11:58:33;;;;;;;11.45;6.50;;;9.90;63.10;;;;;;5016787;28;20273;-18
2022/11/28 12:01:01;;;;;;;15.07;7.63;;;9.90;62.90;;;;;;5016127;28;20081;-16
2022/11/28 12:03:35;;;;;;;16.20;8.95;;;9.90;62.40;;;;;;5016746;28;20181;-16
2022/11/28 12:06:36;;;;;;;12.45;6.95;;;9.90;63.00;;;;;;5016061;28;20040;-18
2022/11/28 12:09:22;;;;;;;11.55;6.40;;;9.90;63.10;;;;;;4978159;28;20038;-18
2022/11/28 12:11:58;;;;;;;13.98;6.97;;;9.90;63.70;;;;;;4994874;28;20538;-17
2022/11/28 12:14:35;;;;;;;13.10;6.57;;;9.90;63.90;;;;;;4994690;28;20398;-17
2022/11/28 12:17:13;;;;;;;12.13;7.07;;;10.00;63.90;;;;;;4994255;28;20042;-18
2022/11/28 12:19:38;;;;;;;12.55;7.90;;;10.10;64.00;;;;;;4994560;28;20030;-19
2022/11/28 12:22:25;;;;;;;15.50;8.27;;;10.10;60.60;;;;;;4994525;28;20065;-18
2022/11/28 12:25:00;;;;;;;13.13;7.15;;;10.00;62.60;;;;;;4977930;28;20043;-17
2022/11/28 12:27:40;;;;;;;14.38;7.75;;;10.00;62.70;;;;;;4994009;28;20065;-18
2022/11/28 12:30:09;;;;;;;14.40;8.00;;;9.90;63.40;;;;;;4994737;28;20042;-18
2022/11/28 12:33:22;;;;;;;16.65;9.07;;;9.90;63.40;;;;;;4994005;28;20113;-18
2022/11/28 12:36:27;;;;;;;15.32;7.80;;;9.90;63.40;;;;;;4994507;28;20525;-18
2022/11/28 12:39:10;;;;;;;;;;;9.90;63.30;;;;;;4995710;28;20522;-17
2022/11/28 12:42:04;;;;;;;11.95;7.10;;;9.90;63.10;;;;;;5016047;28;19912;-19
2022/11/28 12:44:33;;;;;;;19.08;9.38;;;9.90;63.70;;;;;;5015551;28;20026;-18
2022/11/28 12:47:20;;;;;;;15.55;8.65;;;9.90;63.40;;;;;;5015142;28;20442;-16
2022/11/28 12:50:13;;;;;;;14.45;7.88;;;9.90;63.40;;;;;;5014988;28;20061;-16
2022/11/28 12:53:06;;;;;;;16.65;8.43;;;9.90;62.70;;;;;;5015265;28;20038;-17
2022/11/28 12:55:53;;;;;;;14.38;7.85;;;9.80;63.00;;;;;;5015534;28;20060;-16
2022/11/28 12:58:21;;;;;;;12.88;7.55;;;9.70;62.80;;;;;;5015584;28;20025;-16
2022/11/28 13:01:05;;;;;;;14.88;8.93;;;9.60;63.30;;;;;;5014937;28;20121;-16
2022/11/28 13:04:12;;;;;;;15.85;8.52;;;9.60;63.40;;;;;;5015420;28;20061;-18
2022/11/28 13:06:47;;;;;;;13.23;7.78;;;9.60;63.60;;;;;;5015679;28;20053;-17
2022/11/28 13:09:24;;;;;;;20.60;9.88;;;9.60;63.90;;;;;;5015755;28;20501;-17
2022/11/28 13:12:16;;;;;;;11.48;6.72;;;9.70;63.50;;;;;;5015094;28;20026;-18
2022/11/28 13:14:56;;;;;;;11.38;7.28;;;9.70;63.30;;;;;;5015302;28;20034;-17